Data for 05/12/2014

Time Sea-Level Adjusted Pressure Absolute Pressure Temperature Relative Humidity Dew Point   
(mb) (inHg) (mb) (inHg) (C) (F) (%) (C) (F)
00:05 1027 30.33 856 25.28 0.6 33.1 84 -1.7 28.9
00:10 1027 30.33 856 25.28 0.6 33.1 84 -1.7 28.9
00:15 1026 30.3 856 25.28 0.5 33 85 -1.8 28.8
00:20 1026 30.3 856 25.28 0.5 32.9 85 -1.8 28.8
00:25 1027 30.33 856 25.28 0.5 32.9 84 -1.9 28.6
00:30 1027 30.33 856 25.28 0.5 32.8 85 -1.8 28.7
00:35 1027 30.33 856 25.28 0.5 32.9 84 -1.8 28.7
00:40 1027 30.33 856 25.28 0.5 32.9 84 -2 28.4
00:45 1027 30.33 856 25.28 0.4 32.8 84 -1.9 28.6
00:50 1027 30.33 856 25.28 0.4 32.8 84 -2 28.5
00:55 1027 30.33 856 25.28 0.4 32.7 84 -1.9 28.6
01:00 1027 30.33 856 25.28 0.4 32.7 83 -2.2 28.1
01:05 1027 30.33 856 25.28 0.3 32.6 83 -2.2 28
01:10 1027 30.33 856 25.28 0.3 32.6 83 -2.3 27.9
01:15 1027 30.33 856 25.28 0.3 32.6 82 -2.4 27.8
01:20 1027 30.33 856 25.28 0.3 32.5 83 -2.3 27.9
01:25 1027 30.33 856 25.28 0.3 32.5 84 -2.2 28.1
01:30 1027 30.33 856 25.28 0.2 32.4 84 -2.2 28.1
01:35 1027 30.33 856 25.28 0.2 32.4 84 -2.2 28
01:40 1027 30.33 856 25.28 0.2 32.4 83 -2.3 27.9
01:45 1027 30.33 856 25.28 0.2 32.4 83 -2.3 27.9
01:50 1027 30.33 856 25.28 0.2 32.3 84 -2.2 28
01:55 1027 30.33 856 25.28 0.1 32.2 85 -2.1 28.3
02:00 1027 30.33 856 25.28 0.1 32.1 86 -2.1 28.3
02:05 1027 30.33 856 25.28 0 32.1 86 -2.1 28.3
02:10 1027 30.33 856 25.28 -0 32 86 -2 28.4
02:15 1027 30.33 856 25.28 -0 32 86 -2.1 28.3
02:20 1027 30.33 856 25.28 -0 32 87 -1.9 28.5
02:25 1027 30.33 856 25.28 -0 32 87 -2 28.5
02:30 1027 30.33 856 25.28 0.1 32.1 87 -1.8 28.8
02:35 1027 30.33 856 25.28 0.1 32.2 89 -1.4 29.4
02:40 1027 30.33 856 25.28 -0 32 90 -1.4 29.5
02:45 1027 30.33 856 25.28 -0.1 31.8 91 -1.4 29.4
02:50 1027 30.33 856 25.28 -0.3 31.5 92 -1.4 29.4
02:55 1027 30.33 857 25.31 -0.3 31.4 92 -1.5 29.4
03:00 1027 30.33 857 25.31 -0.4 31.3 92 -1.5 29.3
03:05 1027 30.33 857 25.31 -0.4 31.3 92 -1.5 29.3
03:10 1027 30.33 857 25.31 -0.4 31.3 92 -1.5 29.3
03:15 1027 30.33 857 25.31 -0.4 31.2 93 -1.5 29.3
03:20 1027 30.33 857 25.31 -0.5 31.1 93 -1.5 29.2
03:25 1027 30.33 857 25.31 -0.5 31.2 93 -1.5 29.3
03:30 1027 30.33 857 25.31 -0.4 31.2 93 -1.4 29.4
03:35 1027 30.33 857 25.31 -0.4 31.2 93 -1.4 29.4
03:40 1028 30.36 857 25.31 -0.4 31.2 93 -1.4 29.4
03:45 1027 30.33 857 25.31 -0.5 31.2 93 -1.5 29.3
03:50 1028 30.36 857 25.31 -0.5 31.1 93 -1.5 29.2
03:55 1028 30.36 857 25.31 -0.5 31 93 -1.6 29.2
04:00 1028 30.36 857 25.31 -0.6 31 93 -1.6 29.2
04:05 1028 30.36 857 25.31 -0.5 31 93 -1.5 29.3
04:10 1028 30.36 857 25.31 -0.5 31.1 93 -1.5 29.3
04:15 1028 30.36 857 25.31 -0.5 31 93 -1.5 29.3
04:20 1028 30.36 857 25.31 -0.5 31.1 93 -1.5 29.3
04:25 1028 30.36 857 25.31 -0.5 31.2 93 -1.5 29.4
04:30 1028 30.36 857 25.31 -0.5 31.1 93 -1.5 29.3
04:35 1028 30.36 857 25.31 -0.5 31.1 93 -1.6 29.2
04:40 1028 30.36 857 25.31 -0.5 31.1 93 -1.5 29.3
04:45 1028 30.36 857 25.31 -0.5 31.1 93 -1.5 29.3
04:50 1028 30.36 857 25.31 -0.5 31.1 93 -1.5 29.3
04:55 1028 30.36 857 25.31 -0.5 31.1 93 -1.5 29.3
05:00 1028 30.36 857 25.31 -0.5 31.1 93 -1.5 29.3
05:05 1028 30.36 857 25.31 -0.5 31.2 93 -1.4 29.4
05:10 1028 30.36 857 25.31 -0.4 31.3 93 -1.4 29.5
05:15 1028 30.36 857 25.31 -0.4 31.2 93 -1.5 29.4
05:20 1028 30.36 857 25.31 -0.4 31.3 92 -1.5 29.3
05:25 1028 30.36 857 25.31 -0.4 31.3 92 -1.5 29.3
05:30 1028 30.36 857 25.31 -0.4 31.3 92 -1.5 29.3
05:35 1028 30.36 858 25.34 -0.4 31.4 92 -1.5 29.4
05:40 1028 30.36 858 25.34 -0.3 31.4 92 -1.5 29.4
05:45 1028 30.36 858 25.34 -0.4 31.4 92 -1.5 29.4
05:50 1028 30.36 858 25.34 -0.3 31.4 92 -1.5 29.4
05:55 1028 30.36 858 25.34 -0.3 31.5 92 -1.5 29.4
06:00 1029 30.39 858 25.34 -0.3 31.4 92 -1.5 29.4
06:05 1029 30.39 858 25.34 -0.3 31.5 92 -1.5 29.3
06:10 1029 30.39 858 25.34 -0.2 31.6 91 -1.5 29.4
06:15 1029 30.39 858 25.34 -0.1 31.8 91 -1.4 29.4
06:20 1029 30.39 858 25.34 -0.2 31.7 91 -1.4 29.4
06:25 1029 30.39 858 25.34 -0.2 31.7 91 -1.5 29.4
06:30 1029 30.39 858 25.34 -0.2 31.7 91 -1.5 29.3
06:35 1029 30.39 858 25.34 -0.1 31.8 91 -1.5 29.3
06:40 1029 30.39 858 25.34 -0.1 31.8 90 -1.5 29.2
06:45 1029 30.39 858 25.34 0 32 89 -1.5 29.3
06:50 1029 30.39 858 25.34 0.2 32.3 89 -1.4 29.4
06:55 1029 30.39 858 25.34 0.3 32.5 88 -1.5 29.4
07:00 1029 30.39 858 25.34 0.3 32.5 88 -1.5 29.3
07:05 1029 30.39 858 25.34 0.2 32.4 88 -1.5 29.3
07:10 1029 30.39 858 25.34 0.2 32.3 89 -1.4 29.5
07:15 1029 30.39 858 25.34 0.1 32.2 89 -1.5 29.3
07:20 1029 30.39 858 25.34 0.1 32.1 89 -1.6 29.1
07:25 1029 30.39 858 25.34 0.2 32.3 88 -1.5 29.2
07:30 1029 30.39 858 25.34 0.3 32.6 87 -1.6 29
07:35 1029 30.39 858 25.34 0.4 32.7 88 -1.4 29.5
07:40 1029 30.39 859 25.37 0.4 32.7 87 -1.5 29.3
07:45 1029 30.39 859 25.37 0.4 32.6 87 -1.6 29.1
07:50 1029 30.39 859 25.37 0.3 32.6 87 -1.5 29.2
07:55 1029 30.39 859 25.37 0.4 32.8 87 -1.5 29.4
08:00 1030 30.42 859 25.37 0.4 32.8 87 -1.6 29.2
08:05 1030 30.42 859 25.37 0.4 32.7 87 -1.5 29.3
08:10 1030 30.42 859 25.37 0.5 32.9 86 -1.6 29.1
08:15 1030 30.42 859 25.37 0.7 33.2 85 -1.5 29.3
08:20 1030 30.42 859 25.37 0.6 33.2 85 -1.5 29.2
08:25 1030 30.42 859 25.37 0.6 33.1 85 -1.6 29.1
08:30 1030 30.42 859 25.37 0.7 33.2 85 -1.6 29.1
08:35 1030 30.42 859 25.37 0.8 33.4 85 -1.4 29.4
08:40 1030 30.42 859 25.37 0.7 33.3 85 -1.5 29.3
08:45 1030 30.42 859 25.37 0.7 33.2 86 -1.5 29.4
08:50 1030 30.42 859 25.37 0.9 33.5 85 -1.4 29.5
08:55 1030 30.42 859 25.37 1.1 34 85 -1.2 29.9
09:00 1030 30.42 859 25.37 1.4 34.6 82 -1.3 29.6
09:05 1030 30.42 859 25.37 1.6 34.9 81 -1.4 29.5
09:10 1030 30.42 859 25.37 1.6 34.9 80 -1.4 29.5
09:15 1030 30.42 859 25.37 1.7 35 81 -1.3 29.6
09:20 1030 30.42 859 25.37 1.8 35.2 79 -1.6 29.2
09:25 1030 30.42 859 25.37 1.9 35.3 78 -1.6 29.2
09:30 1030 30.42 859 25.37 2.1 35.7 79 -1.2 29.8
09:35 1030 30.42 859 25.37 1.7 35 78 -1.8 28.8
09:40 1030 30.42 859 25.37 1.7 35.1 78 -1.7 28.9
09:45 1030 30.42 859 25.37 2.2 36 80 -0.9 30.3
09:50 1030 30.42 859 25.37 2.7 36.9 73 -1.6 29.1
09:55 1030 30.42 859 25.37 2.3 36.2 77 -1.3 29.6
10:00 1030 30.42 859 25.37 2.4 36.3 71 -2.3 27.9
10:05 1030 30.42 859 25.37 2.8 37 74 -1.4 29.5
10:10 1030 30.42 859 25.37 3 37.5 70 -2 28.4
10:15 1030 30.42 859 25.37 3.1 37.5 70 -1.9 28.7
10:20 1030 30.42 859 25.37 3 37.4 70 -1.9 28.6
10:25 1030 30.42 859 25.37 3 37.4 71 -1.8 28.8
10:30 1030 30.42 859 25.37 2.9 37.1 71 -1.9 28.6
10:35 1030 30.42 859 25.37 3 37.5 71 -1.7 28.9
10:40 1030 30.42 859 25.37 3.4 38.1 70 -1.7 29
10:45 1030 30.42 859 25.37 3.7 38.7 67 -1.8 28.8
10:50 1030 30.42 859 25.37 3.6 38.6 67 -1.9 28.6
10:55 1030 30.42 859 25.37 3.6 38.5 64 -2.5 27.5
11:00 1030 30.42 859 25.37 3.6 38.4 66 -2.2 28
11:05 1030 30.42 859 25.37 3.5 38.3 65 -2.5 27.5
11:10 1030 30.42 859 25.37 3.6 38.6 63 -2.7 27.1
11:15 1030 30.42 859 25.37 3.5 38.3 67 -2.2 28.1
11:20 1030 30.42 859 25.37 3.3 38 71 -1.3 29.6
11:25 1030 30.42 859 25.37 2.7 36.9 75 -1.3 29.7
11:30 1030 30.42 859 25.37 3 37.4 71 -1.7 28.9
11:35 1030 30.42 859 25.37 2.8 37 73 -1.6 29.2
11:40 1030 30.42 859 25.37 3 37.5 68 -2.3 27.9
11:45 1030 30.42 859 25.37 3.8 38.8 65 -2.3 27.9
11:50 1030 30.42 859 25.37 3.7 38.6 66 -2 28.4
11:55 1030 30.42 859 25.37 3.8 38.9 64 -2.3 27.9
12:00 1030 30.42 859 25.37 4.1 39.4 60 -3 26.7
12:05 1030 30.42 859 25.37 4.1 39.3 55 -4.3 24.3
12:10 1030 30.42 859 25.37 4.3 39.7 58 -3.3 26.1
12:15 1030 30.42 859 25.37 4.8 40.6 55 -3.6 25.6
12:20 1030 30.42 859 25.37 5.3 41.6 56 -2.7 27.2
12:25 1030 30.42 859 25.37 5 41.1 55 -3.2 26.2
12:30 1030 30.42 859 25.37 5.3 41.6 52 -3.6 25.4
12:35 1030 30.42 859 25.37 5.5 42 49 -4.5 24
12:40 1030 30.42 859 25.37 5.4 41.7 50 -4.2 24.5
12:45 1030 30.42 859 25.37 5.2 41.4 50 -4.2 24.4
12:50 1030 30.42 859 25.37 6.4 43.5 51 -3 26.6
12:55 1030 30.42 859 25.37 5.7 42.2 53 -3.1 26.4
13:00 1030 30.42 859 25.37 5.2 41.3 54 -3.3 26.1
13:05 1030 30.42 859 25.37 5.4 41.7 54 -3.2 26.2
13:10 1030 30.42 859 25.37 5.8 42.5 50 -3.8 25.1
13:15 1030 30.42 859 25.37 6.6 43.9 47 -4 24.8
13:20 1030 30.42 859 25.37 7.7 45.8 40 -4.9 23.1
13:25 1030 30.42 859 25.37 7.5 45.5 43 -4.3 24.2
13:30 1030 30.42 859 25.37 7.1 44.8 41 -5.2 22.6
13:35 1030 30.42 859 25.37 6.8 44.3 43 -5 22.9
13:40 1030 30.42 859 25.37 6.5 43.8 42 -5.3 22.5
13:45 1030 30.42 859 25.37 7.5 45.6 42 -4.6 23.8
13:50 1030 30.42 859 25.37 7.3 45.2 47 -3.3 26.1
13:55 1030 30.42 859 25.37 6.2 43.2 51 -3.2 26.2
14:00 1030 30.42 859 25.37 6 42.8 53 -2.9 26.9
14:05 1030 30.42 859 25.37 6.8 44.2 48 -3.4 25.9
14:10 1030 30.42 859 25.37 7.3 45.2 48 -2.9 26.7
14:15 1030 30.42 859 25.37 7.9 46.2 44 -3.6 25.5
14:20 1030 30.42 859 25.37 8.4 47.1 42 -3.7 25.3
14:25 1030 30.42 859 25.37 8.7 47.7 38 -4.7 23.5
14:30 1030 30.42 859 25.37 8.7 47.6 39 -4.3 24.2
14:35 1030 30.42 859 25.37 8.8 47.8 39 -4.4 24.1
14:40 1030 30.42 859 25.37 9.2 48.5 38 -4.5 24
14:45 1029 30.39 859 25.37 9.3 48.7 38 -4.4 24.2
14:50 1029 30.39 859 25.37 9 48.3 40 -3.8 25.1
14:55 1029 30.39 859 25.37 9 48.1 39 -4.1 24.5
15:00 1029 30.39 859 25.37 8.9 48.1 38 -4.5 24
15:05 1029 30.39 859 25.37 9.2 48.5 36 -5.2 22.7
15:10 1029 30.39 859 25.37 9.4 49 37 -4.5 23.9
15:15 1030 30.42 859 25.37 9.7 49.5 37 -4.4 24.1
15:20 1029 30.39 859 25.37 8.7 47.6 38 -4.9 23.2
15:25 1029 30.39 859 25.37 9.3 48.7 36 -4.9 23.1
15:30 1029 30.39 859 25.37 9.8 49.6 33 -5.5 22
15:35 1029 30.39 859 25.37 10 49.9 33 -5.4 22.2
15:40 1029 30.39 859 25.37 9 48.3 38 -4.4 24.1
15:45 1029 30.39 859 25.37 9.3 48.7 33 -6 21.2
15:50 1029 30.39 859 25.37 9.5 49.1 33 -6 21.3
15:55 1029 30.39 858 25.34 9.4 48.9 35 -5.4 22.2
16:00 1029 30.39 858 25.34 9.4 48.8 34 -5.9 21.5
16:05 1029 30.39 859 25.37 8.6 47.4 35 -6.1 21
16:10 1029 30.39 859 25.37 8.3 47 35 -6.4 20.5
16:15 1029 30.39 859 25.37 8.4 47.1 35 -6.2 20.9
16:20 1029 30.39 859 25.37 8.6 47.5 34 -6.3 20.6
16:25 1029 30.39 859 25.37 8.8 47.9 34 -6.4 20.6
16:30 1029 30.39 859 25.37 9 48.1 35 -5.9 21.5
16:35 1029 30.39 858 25.34 9 48.2 33 -6.2 20.8
16:40 1029 30.39 858 25.34 9.5 49.1 32 -6.4 20.5
16:45 1029 30.39 858 25.34 9.1 48.4 33 -6.3 20.6
16:50 1029 30.39 858 25.34 9.2 48.6 32 -6.6 20.2
16:55 1029 30.39 858 25.34 9.8 49.6 31 -6.6 20.1
17:00 1029 30.39 858 25.34 9.2 48.6 34 -5.8 21.6
17:05 1029 30.39 858 25.34 8.2 46.8 36 -6 21.2
17:10 1029 30.39 858 25.34 8.8 47.9 33 -6.6 20.1
17:15 1029 30.39 858 25.34 9.3 48.8 33 -6.3 20.7
17:20 1029 30.39 858 25.34 9.6 49.3 33 -5.9 21.3
17:25 1029 30.39 858 25.34 9.3 48.7 33 -6.1 21
17:30 1029 30.39 858 25.34 9.9 49.7 32 -6.2 20.9
17:35 1029 30.39 858 25.34 9.8 49.7 31 -6.5 20.3
17:40 1029 30.39 858 25.34 9.5 49 32 -6.6 20.1
17:45 1029 30.39 858 25.34 9.4 48.9 33 -5.9 21.3
17:50 1029 30.39 858 25.34 8.9 48 32 -6.7 19.9
17:55 1029 30.39 858 25.34 8.5 47.3 34 -6.4 20.6
18:00 1029 30.39 858 25.34 7.9 46.2 36 -6.4 20.5
18:05 1029 30.39 858 25.34 7.8 46.1 36 -6.4 20.5
18:10 1029 30.39 858 25.34 7.6 45.8 35 -6.7 20
18:15 1029 30.39 858 25.34 7.5 45.6 36 -6.6 20.1
18:20 1029 30.39 858 25.34 7.8 46 35 -6.6 20.1
18:25 1029 30.39 858 25.34 8 46.4 33 -7.1 19.1
18:30 1029 30.39 858 25.34 8 46.5 33 -7.1 19.2
18:35 1029 30.39 858 25.34 7.9 46.3 35 -6.7 20
18:40 1029 30.39 858 25.34 8 46.4 36 -6.2 20.8
18:45 1029 30.39 858 25.34 7.8 46 36 -6.4 20.4
18:50 1029 30.39 858 25.34 7.5 45.4 36 -6.6 20.1
18:55 1029 30.39 858 25.34 7.5 45.4 35 -7.1 19.3
19:00 1029 30.39 858 25.34 7.4 45.2 36 -6.8 19.7
19:05 1029 30.39 858 25.34 7.3 45.1 36 -6.7 20
19:10 1029 30.39 858 25.34 7.4 45.3 35 -7 19.4
19:15 1029 30.39 858 25.34 7.4 45.2 36 -6.6 20
19:20 1029 30.39 858 25.34 7.3 45.1 38 -6.2 20.8
19:25 1029 30.39 858 25.34 7.2 44.9 37 -6.4 20.5
19:30 1029 30.39 858 25.34 7.1 44.8 37 -6.6 20
19:35 1029 30.39 858 25.34 6.9 44.5 39 -6.2 20.8
19:40 1029 30.39 859 25.37 6.8 44.3 38 -6.5 20.4
19:45 1029 30.39 858 25.34 6.8 44.2 37 -6.7 19.9
19:50 1029 30.39 858 25.34 6.6 43.9 38 -6.6 20
19:55 1029 30.39 858 25.34 6.5 43.8 38 -6.9 19.6
20:00 1029 30.39 859 25.37 6.5 43.8 38 -6.7 20
20:05 1029 30.39 859 25.37 6.4 43.5 44 -4.9 23.1
20:10 1029 30.39 859 25.37 5.7 42.2 51 -3.7 25.3
20:15 1029 30.39 859 25.37 5.2 41.4 53 -3.7 25.4
20:20 1030 30.42 859 25.37 4.9 40.8 55 -3.3 26
20:25 1030 30.42 859 25.37 4.6 40.3 57 -3.2 26.3
20:30 1030 30.42 859 25.37 4.3 39.8 57 -3.4 25.9
20:35 1030 30.42 859 25.37 4.1 39.4 59 -3.3 26.1
20:40 1030 30.42 859 25.37 3.9 39 61 -3 26.7
20:45 1030 30.42 859 25.37 3.6 38.5 62 -3 26.7
20:50 1030 30.42 859 25.37 3.5 38.3 62 -3.1 26.5
20:55 1030 30.42 859 25.37 3.4 38.1 63 -3 26.6
21:00 1030 30.42 859 25.37 3.1 37.6 65 -2.9 26.7
21:05 1030 30.42 859 25.37 2.9 37.2 62 -3.6 25.5
21:10 1030 30.42 859 25.37 3.1 37.6 60 -3.9 25
21:15 1030 30.42 859 25.37 3.2 37.8 61 -3.6 25.5
21:20 1030 30.42 859 25.37 3 37.3 61 -3.9 25
21:25 1030 30.42 859 25.37 2.8 37.1 62 -3.7 25.3
21:30 1030 30.42 859 25.37 2.7 36.9 63 -3.7 25.4
21:35 1030 30.42 859 25.37 2.6 36.7 63 -3.7 25.4
21:40 1030 30.42 859 25.37 2.5 36.5 64 -3.6 25.5
21:45 1030 30.42 859 25.37 2.4 36.3 64 -3.6 25.5
21:50 1030 30.42 859 25.37 2.3 36.2 64 -3.7 25.3
21:55 1030 30.42 859 25.37 2.5 36.5 62 -4.2 24.5
22:00 1030 30.42 859 25.37 2.5 36.5 64 -3.7 25.4
22:05 1030 30.42 859 25.37 2.4 36.4 64 -3.6 25.5
22:10 1030 30.42 859 25.37 2.1 35.7 66 -3.5 25.7
22:15 1030 30.42 859 25.37 2 35.6 66 -3.7 25.4
22:20 1030 30.42 859 25.37 2.1 35.8 67 -3.5 25.8
22:25 1030 30.42 859 25.37 1.9 35.5 67 -3.6 25.6
22:30 1030 30.42 859 25.37 1.8 35.3 68 -3.5 25.6
22:35 1030 30.42 859 25.37 1.7 35 69 -3.5 25.7
22:40 1030 30.42 859 25.37 1.6 34.9 67 -3.8 25.2
22:45 1030 30.42 859 25.37 1.7 35 68 -3.6 25.6
22:50 1030 30.42 859 25.37 1.5 34.7 68 -3.8 25.2
22:55 1030 30.42 859 25.37 1.6 34.9 68 -3.6 25.5
23:00 1030 30.42 859 25.37 1.4 34.6 69 -3.6 25.5
23:05 1030 30.42 859 25.37 1.3 34.4 69 -3.7 25.3
23:10 1030 30.42 860 25.4 1.3 34.3 69 -3.8 25.2
23:15 1030 30.42 860 25.4 1.3 34.3 69 -3.8 25.2
23:20 1030 30.42 860 25.4 1.1 34 70 -3.8 25.2
23:25 1030 30.42 860 25.4 1 33.8 71 -3.7 25.4
23:30 1030 30.42 860 25.4 0.9 33.6 71 -3.8 25.1
23:35 1030 30.42 860 25.4 0.9 33.6 71 -3.9 25
23:40 1030 30.42 860 25.4 0.9 33.6 70 -3.9 24.9
23:45 1030 30.42 860 25.4 0.9 33.6 70 -4 24.9
23:50 1030 30.42 860 25.4 0.8 33.5 70 -4 24.7
23:55 1030 30.42 860 25.4 0.8 33.5 69 -4.1 24.5
24:00 1030 30.42 859 25.37 0.9 33.6 70 -4 24.8